createdAt,value
2018-01-05T00:02:26.194Z,79.70
2018-01-05T00:04:54.485Z,79.80
2018-01-05T00:07:24.833Z,79.60
2018-01-05T00:09:52.815Z,79.60
2018-01-05T00:12:20.382Z,79.10
2018-01-05T00:14:47.993Z,78.60
2018-01-05T00:17:16.422Z,80.00
2018-01-05T00:19:44.720Z,78.80
2018-01-05T00:22:12.237Z,78.70
2018-01-05T00:24:39.940Z,78.60
2018-01-05T00:27:08.233Z,78.80
2018-01-05T00:29:35.751Z,78.80
2018-01-05T00:32:03.248Z,79.30
2018-01-05T00:34:30.733Z,79.90
2018-01-05T00:36:58.228Z,79.70
2018-01-05T00:39:25.807Z,78.80
2018-01-05T00:41:53.301Z,79.00
2018-01-05T00:44:21.543Z,79.50
2018-01-05T00:46:49.071Z,79.50
2018-01-05T00:49:16.576Z,80.20
2018-01-05T00:51:44.069Z,80.00
2018-01-05T00:54:11.652Z,80.30
2018-01-05T00:56:39.174Z,79.70
2018-01-05T00:59:07.778Z,79.90
2018-01-05T01:01:35.741Z,79.90
2018-01-05T01:04:04.361Z,81.20
2018-01-05T01:06:31.874Z,81.20
2018-01-05T01:08:59.368Z,81.30
2018-01-05T01:11:26.850Z,81.20
2018-01-05T01:13:54.717Z,78.70
2018-01-05T01:16:22.217Z,79.10
2018-01-05T01:18:49.726Z,80.20
2018-01-05T01:21:17.200Z,78.70
2018-01-05T01:23:44.714Z,77.10
2018-01-05T01:26:14.915Z,76.80
2018-01-05T01:28:42.637Z,75.70
2018-01-05T01:31:10.112Z,76.20
2018-01-05T01:33:38.369Z,75.50
2018-01-05T01:36:05.846Z,75.30
2018-01-05T01:38:34.108Z,74.40
2018-01-05T01:41:01.581Z,74.20
2018-01-05T01:43:29.824Z,72.40
2018-01-05T01:45:57.300Z,72.40
2018-01-05T01:48:24.785Z,72.30
2018-01-05T01:50:53.052Z,71.30
2018-01-05T01:53:21.318Z,70.70
2018-01-05T01:55:48.794Z,70.70
2018-01-05T01:58:17.045Z,70.80
2018-01-05T02:00:44.525Z,70.80
2018-01-05T02:03:12.033Z,69.50
2018-01-05T02:05:39.516Z,70.90
2018-01-05T02:08:06.997Z,69.40
2018-01-05T02:10:34.488Z,67.40
2018-01-05T02:13:01.972Z,67.90
2018-01-05T02:15:29.468Z,65.60
2018-01-05T02:17:56.970Z,65.60
2018-01-05T02:20:24.445Z,66.40
2018-01-05T02:22:51.917Z,64.70
2018-01-05T02:25:19.404Z,64.00
2018-01-05T02:30:21.536Z,63.50
2018-01-05T02:32:49.002Z,63.40
2018-01-05T02:35:16.488Z,62.90
2018-01-05T02:37:43.972Z,63.10
2018-01-05T02:42:45.329Z,63.00
2018-01-05T02:45:13.581Z,63.00
2018-01-05T02:47:41.057Z,63.00
2018-01-05T02:50:09.315Z,64.60
2018-01-05T02:52:36.801Z,64.60
2018-01-05T02:55:05.040Z,65.70
2018-01-05T02:57:32.510Z,65.60
2018-01-05T02:59:59.984Z,66.80
2018-01-05T03:02:28.260Z,65.00
2018-01-05T03:04:56.505Z,65.10
2018-01-05T03:07:23.996Z,65.10
2018-01-05T03:09:52.244Z,66.60
2018-01-05T03:12:19.743Z,66.60
2018-01-05T03:14:47.235Z,67.10
2018-01-05T03:17:14.725Z,67.50
2018-01-05T03:19:42.204Z,67.90
2018-01-05T03:22:10.442Z,67.40
2018-01-05T03:24:37.946Z,67.30
2018-01-05T03:27:06.182Z,68.20
2018-01-05T03:29:33.687Z,68.10
2018-01-05T03:32:01.160Z,67.90
2018-01-05T03:34:28.638Z,67.70
2018-01-05T03:36:56.889Z,68.30
2018-01-05T03:39:24.354Z,67.60
2018-01-05T03:41:51.840Z,68.10
2018-01-05T03:44:19.318Z,68.40
2018-01-05T03:46:46.813Z,68.40
2018-01-05T03:49:14.282Z,68.90
2018-01-05T03:51:41.786Z,68.20
2018-01-05T03:54:10.056Z,69.50
2018-01-05T03:56:37.536Z,68.60
2018-01-05T03:59:05.763Z,68.90
2018-01-05T04:01:34.093Z,68.80
2018-01-05T04:04:02.329Z,69.60
2018-01-05T04:06:29.825Z,69.50
2018-01-05T04:08:58.057Z,68.30
2018-01-05T04:11:25.549Z,69.30
2018-01-05T04:13:53.038Z,68.20
2018-01-05T04:16:20.532Z,68.50
2018-01-05T04:18:48.020Z,68.70
2018-01-05T04:21:15.514Z,68.90
2018-01-05T04:23:42.989Z,69.20
2018-01-05T04:26:10.500Z,69.20
2018-01-05T04:28:38.745Z,69.40
2018-01-05T04:31:06.241Z,69.30
2018-01-05T04:33:34.481Z,69.50
2018-01-05T04:36:01.982Z,69.40
2018-01-05T04:38:30.217Z,69.20
2018-01-05T04:40:57.720Z,69.20
2018-01-05T04:43:25.962Z,68.60
2018-01-05T04:45:53.457Z,68.60
2018-01-05T04:48:20.924Z,68.40
2018-01-05T04:50:48.418Z,67.90
2018-01-05T04:53:15.894Z,67.50
2018-01-05T04:55:43.421Z,67.20
2018-01-05T04:58:10.920Z,67.50
2018-01-05T05:00:38.414Z,66.90
2018-01-05T05:03:05.905Z,66.70
2018-01-05T05:05:33.441Z,66.20
2018-01-05T05:08:00.932Z,64.40
2018-01-05T05:10:28.432Z,64.40
2018-01-05T05:12:56.686Z,63.50
2018-01-05T05:15:24.169Z,63.50
2018-01-05T05:17:52.446Z,62.10
2018-01-05T05:20:20.697Z,62.40
2018-01-05T05:22:48.184Z,62.40
2018-01-05T05:25:15.656Z,62.80
2018-01-05T05:27:43.140Z,62.60
2018-01-05T05:30:10.642Z,62.10
2018-01-05T05:32:38.902Z,62.80
2018-01-05T05:35:06.389Z,62.70
2018-01-05T05:37:34.644Z,62.30
2018-01-05T05:40:02.140Z,62.30
2018-01-05T05:42:29.643Z,62.00
2018-01-05T05:44:57.128Z,61.60
2018-01-05T05:47:25.402Z,61.80
2018-01-05T05:49:53.661Z,61.90
2018-01-05T05:52:21.179Z,61.20
2018-01-05T05:54:48.664Z,60.90
2018-01-05T05:57:16.166Z,60.20
2018-01-05T05:59:44.399Z,60.00
2018-01-05T06:02:11.905Z,59.90
2018-01-05T06:04:39.413Z,60.00
2018-01-05T06:07:06.914Z,59.70
2018-01-05T06:09:34.432Z,60.30
2018-01-05T06:12:01.931Z,59.90
2018-01-05T06:14:30.177Z,60.40
2018-01-05T06:16:57.668Z,60.30
2018-01-05T06:19:25.173Z,60.30
2018-01-05T06:21:52.681Z,60.40
2018-01-05T06:24:20.949Z,60.00
2018-01-05T06:26:49.204Z,59.90
2018-01-05T06:29:16.689Z,59.80
2018-01-05T06:31:44.188Z,60.30
2018-01-05T06:34:11.721Z,60.20
2018-01-05T06:36:39.217Z,60.30
2018-01-05T06:39:06.704Z,60.30
2018-01-05T06:41:34.640Z,60.20
2018-01-05T06:44:03.581Z,61.00
2018-01-05T06:46:31.107Z,61.40
2018-01-05T06:48:58.642Z,60.60
2018-01-05T06:51:26.153Z,61.30
2018-01-05T06:53:53.707Z,61.10
2018-01-05T06:56:22.008Z,62.60
2018-01-05T06:58:49.601Z,61.90
2018-01-05T07:01:17.166Z,61.90
2018-01-05T07:03:44.695Z,61.70
2018-01-05T07:06:12.265Z,62.00
2018-01-05T07:08:39.752Z,63.80
2018-01-05T07:11:07.220Z,65.30
2018-01-05T07:13:34.736Z,65.60
2018-01-05T07:16:02.202Z,64.30
2018-01-05T07:18:29.682Z,65.70
2018-01-05T07:20:57.182Z,66.00
2018-01-05T07:23:25.433Z,64.90
2018-01-05T07:25:52.945Z,64.70
2018-01-05T07:28:20.432Z,65.50
2018-01-05T07:30:47.943Z,63.20
2018-01-05T07:33:15.441Z,62.50
2018-01-05T07:35:42.927Z,62.30
2018-01-05T07:38:10.416Z,62.10
2018-01-05T07:40:37.883Z,62.60
2018-01-05T07:43:05.368Z,62.50
2018-01-05T07:45:32.835Z,63.10
2018-01-05T07:48:00.291Z,64.00
2018-01-05T07:50:27.748Z,63.80
2018-01-05T07:52:55.215Z,64.10
2018-01-05T07:55:22.692Z,63.60
2018-01-05T07:57:50.143Z,63.80
2018-01-05T08:00:17.617Z,63.80
2018-01-05T08:02:45.856Z,63.00
2018-01-05T08:05:13.319Z,63.00
2018-01-05T08:07:40.830Z,63.00
2018-01-05T08:10:08.311Z,64.30
2018-01-05T08:12:35.801Z,64.20
2018-01-05T08:15:03.271Z,63.90
2018-01-05T08:17:31.432Z,59.80
2018-01-05T08:19:58.905Z,60.20
2018-01-05T08:22:26.361Z,58.20
2018-01-05T08:24:53.827Z,56.50
2018-01-05T08:27:22.055Z,57.10
2018-01-05T08:29:49.512Z,57.10
2018-01-05T08:32:16.993Z,56.40
2018-01-05T08:34:44.448Z,56.00
2018-01-05T08:37:11.917Z,55.50
2018-01-05T08:39:39.366Z,55.90
2018-01-05T08:42:06.846Z,55.20
2018-01-05T08:44:34.295Z,54.70
2018-01-05T08:47:01.919Z,54.60
2018-01-05T08:49:29.476Z,55.20
2018-01-05T08:51:56.952Z,54.90
2018-01-05T08:54:24.414Z,54.40
2018-01-05T08:56:52.092Z,54.70
2018-01-05T08:59:19.574Z,54.40
2018-01-05T09:01:47.833Z,54.70
2018-01-05T09:04:15.337Z,54.60
2018-01-05T09:06:42.823Z,54.00
2018-01-05T09:09:10.319Z,53.20
2018-01-05T09:11:39.359Z,52.60
2018-01-05T09:14:07.012Z,52.50
2018-01-05T09:16:35.315Z,52.30
2018-01-05T09:19:02.780Z,52.80
2018-01-05T09:21:30.248Z,50.70
2018-01-05T09:23:57.701Z,50.70
2018-01-05T09:26:25.164Z,51.00
2018-01-05T09:28:52.624Z,51.20
2018-01-05T09:31:20.096Z,51.30
2018-01-05T09:33:48.325Z,50.50
2018-01-05T09:36:15.809Z,50.30
2018-01-05T09:38:43.255Z,51.30
2018-01-05T09:41:10.777Z,50.20
2018-01-05T09:43:38.195Z,51.30
2018-01-05T09:46:05.655Z,51.70
2018-01-05T09:48:33.891Z,52.10
2018-01-05T09:51:01.360Z,52.10
2018-01-05T09:53:28.828Z,51.70
2018-01-05T09:55:56.288Z,50.60
2018-01-05T09:58:23.750Z,52.80
2018-01-05T10:00:51.211Z,53.60
2018-01-05T10:03:18.699Z,52.50
2018-01-05T10:05:46.917Z,51.80
2018-01-05T10:08:14.402Z,51.80
2018-01-05T10:10:41.858Z,50.50
2018-01-05T10:13:09.316Z,51.20
2018-01-05T10:15:36.775Z,51.70
2018-01-05T10:18:05.041Z,50.60
2018-01-05T10:20:33.340Z,52.30
2018-01-05T10:23:00.810Z,50.70
2018-01-05T10:25:29.260Z,53.40
2018-01-05T10:27:56.740Z,53.30
2018-01-05T10:30:24.977Z,50.00
2018-01-05T10:32:52.468Z,49.90
2018-01-05T10:35:19.914Z,49.50
2018-01-05T10:37:47.381Z,47.90
2018-01-05T10:40:14.847Z,46.00
2018-01-05T10:42:43.115Z,42.50
2018-01-05T10:45:11.413Z,42.50
2018-01-05T10:47:39.648Z,41.30
2018-01-05T10:50:07.116Z,41.30
2018-01-05T10:52:34.588Z,41.20
2018-01-05T10:55:02.808Z,44.30
2018-01-05T10:57:30.272Z,44.30
2018-01-05T10:59:57.733Z,44.50
2018-01-05T11:02:25.190Z,44.00
2018-01-05T11:04:52.649Z,45.70
2018-01-05T11:07:20.107Z,43.90
2018-01-05T11:09:47.572Z,44.30
2018-01-05T11:12:15.036Z,44.60
2018-01-05T11:14:42.503Z,46.30
2018-01-05T11:17:10.212Z,45.90
2018-01-05T11:19:37.680Z,45.80
2018-01-05T11:22:05.169Z,46.30
2018-01-05T11:24:33.399Z,48.10
2018-01-05T11:27:00.868Z,48.60
2018-01-05T11:29:28.340Z,48.50
2018-01-05T11:31:55.943Z,50.20
2018-01-05T11:34:23.412Z,48.20
2018-01-05T11:36:51.641Z,49.00
2018-01-05T11:39:19.119Z,49.00
2018-01-05T11:41:46.573Z,50.60
2018-01-05T11:44:14.098Z,51.30
2018-01-05T11:46:41.565Z,50.70
2018-01-05T11:49:09.038Z,51.10
2018-01-05T11:51:36.496Z,51.50
2018-01-05T11:54:03.968Z,52.60
2018-01-05T11:56:31.421Z,52.90
2018-01-05T11:58:58.893Z,53.50
2018-01-05T12:01:26.358Z,53.80
2018-01-05T12:03:54.825Z,51.90
2018-01-05T12:06:22.308Z,50.00
2018-01-05T12:08:50.549Z,49.40
2018-01-05T12:11:18.609Z,49.30
2018-01-05T12:13:46.075Z,49.80
2018-01-05T12:16:13.543Z,50.80
2018-01-05T12:18:41.004Z,51.60
2018-01-05T12:21:08.569Z,51.70
2018-01-05T12:23:36.036Z,52.10
2018-01-05T12:26:04.876Z,52.10
2018-01-05T12:28:32.344Z,52.00
2018-01-05T12:31:03.928Z,54.00
2018-01-05T12:33:32.185Z,54.30
2018-01-05T12:35:59.651Z,54.30
2018-01-05T12:38:27.113Z,54.60
2018-01-05T12:40:54.578Z,54.10
2018-01-05T12:43:22.036Z,54.70
2018-01-05T12:45:49.548Z,55.40
2018-01-05T12:48:17.050Z,55.60
2018-01-05T12:50:44.581Z,56.30
2018-01-05T12:53:12.064Z,56.60
2018-01-05T12:55:39.523Z,56.60
2018-01-05T12:58:06.984Z,56.30
2018-01-05T13:00:34.461Z,56.10
2018-01-05T13:03:02.692Z,56.10
2018-01-05T13:05:30.325Z,56.10
2018-01-05T13:07:57.809Z,55.70
2018-01-05T13:10:25.356Z,56.40
2018-01-05T13:12:54.790Z,56.40
2018-01-05T13:15:22.301Z,56.80
2018-01-05T13:17:49.830Z,56.90
2018-01-05T13:20:18.088Z,57.90
2018-01-05T13:22:45.576Z,57.90
2018-01-05T13:25:13.177Z,57.70
2018-01-05T13:27:40.713Z,57.90
2018-01-05T13:30:08.239Z,58.00
2018-01-05T13:32:36.534Z,58.00
2018-01-05T13:35:04.077Z,58.00
2018-01-05T13:37:32.397Z,57.90
2018-01-05T13:39:59.964Z,57.90
2018-01-05T13:42:27.457Z,58.20
2018-01-05T13:44:54.976Z,58.40
2018-01-05T13:47:22.514Z,58.00
2018-01-05T13:49:50.087Z,58.00
2018-01-05T13:52:17.607Z,57.80
2018-01-05T13:54:45.908Z,57.80
2018-01-05T13:57:13.446Z,57.80
2018-01-05T13:59:41.744Z,58.20
2018-01-05T14:02:09.325Z,58.20
2018-01-05T14:04:36.877Z,58.20
2018-01-05T14:07:04.447Z,58.30
2018-01-05T14:09:31.967Z,58.60
2018-01-05T14:12:00.282Z,59.10
2018-01-05T14:14:27.847Z,59.00
2018-01-05T14:16:55.373Z,59.50
2018-01-05T14:19:22.906Z,59.50
2018-01-05T14:21:50.410Z,59.50
2018-01-05T14:24:17.953Z,59.50
2018-01-05T14:26:45.549Z,59.70
2018-01-05T14:29:13.082Z,59.50
2018-01-05T14:31:40.651Z,59.00
2018-01-05T14:36:42.138Z,59.60
2018-01-05T14:39:09.655Z,59.80
2018-01-05T14:41:37.239Z,59.40
2018-01-05T14:44:04.733Z,58.80
2018-01-05T14:46:32.254Z,59.30
2018-01-05T14:48:59.806Z,58.90
2018-01-05T14:51:27.367Z,59.10
2018-01-05T14:53:54.879Z,58.90
2018-01-05T14:56:22.430Z,59.10
2018-01-05T14:58:49.942Z,59.10
2018-01-05T15:01:17.466Z,59.50
2018-01-05T15:03:45.778Z,60.50
2018-01-05T15:06:13.329Z,60.30
2018-01-05T15:08:40.890Z,61.40
2018-01-05T15:11:08.402Z,61.30
2018-01-05T15:13:35.922Z,61.50
2018-01-05T15:16:03.450Z,61.90
2018-01-05T15:18:30.994Z,63.00
2018-01-05T15:20:59.298Z,63.80
2018-01-05T15:23:26.809Z,63.70
2018-01-05T15:25:54.297Z,64.60
2018-01-05T15:28:22.573Z,64.10
2018-01-05T15:30:50.881Z,65.10
2018-01-05T15:33:18.458Z,65.00
2018-01-05T15:35:45.970Z,65.30
2018-01-05T15:40:48.992Z,67.50
2018-01-05T15:43:17.287Z,69.00
2018-01-05T15:45:44.822Z,69.00
2018-01-05T15:48:13.147Z,69.90
2018-01-05T15:50:40.717Z,69.90
2018-01-05T15:53:08.310Z,70.80
2018-01-05T15:55:36.611Z,72.10
2018-01-05T15:58:04.201Z,72.00
2018-01-05T16:00:31.752Z,72.30
2018-01-05T16:02:59.265Z,73.00
2018-01-05T16:05:26.750Z,72.90
2018-01-05T16:07:54.225Z,72.70
2018-01-05T16:10:21.696Z,74.20
2018-01-05T16:12:49.241Z,74.70
2018-01-05T16:15:16.745Z,74.60
2018-01-05T16:17:44.291Z,75.10
2018-01-05T16:20:11.808Z,75.10
2018-01-05T16:22:39.324Z,75.10
2018-01-05T16:25:06.862Z,75.60
2018-01-05T16:27:34.442Z,75.80
2018-01-05T16:30:02.031Z,76.50
2018-01-05T16:32:29.560Z,76.80
2018-01-05T16:34:57.086Z,77.10
2018-01-05T16:37:24.633Z,76.20
2018-01-05T16:39:52.236Z,76.70
2018-01-05T16:42:19.778Z,76.10
2018-01-05T16:44:48.283Z,76.10
2018-01-05T16:47:15.791Z,76.60
2018-01-05T16:49:43.358Z,76.10
2018-01-05T16:52:10.950Z,75.90
2018-01-05T16:54:38.484Z,75.10
2018-01-05T16:57:05.965Z,75.00
2018-01-05T16:59:34.378Z,74.80
2018-01-05T17:02:01.865Z,75.40
2018-01-05T17:04:29.558Z,76.40
2018-01-05T17:06:57.067Z,76.60
2018-01-05T17:09:26.058Z,76.60
2018-01-05T17:11:54.276Z,76.10
2018-01-05T17:14:21.793Z,76.00
2018-01-05T17:16:50.052Z,76.30
2018-01-05T17:19:17.592Z,76.20
2018-01-05T17:21:45.148Z,76.50
2018-01-05T17:24:12.629Z,76.10
2018-01-05T17:26:41.461Z,76.10
2018-01-05T17:29:08.988Z,76.50
2018-01-05T17:31:36.491Z,76.40
2018-01-05T17:34:03.991Z,76.30
2018-01-05T17:36:31.503Z,76.20
2018-01-05T17:38:58.947Z,75.60
2018-01-05T17:41:26.465Z,75.40
2018-01-05T17:43:54.009Z,75.30
2018-01-05T17:46:21.509Z,75.60
2018-01-05T17:48:49.723Z,74.50
2018-01-05T17:51:17.226Z,74.50
2018-01-05T17:53:44.697Z,74.60
2018-01-05T17:56:12.969Z,75.90
2018-01-05T17:58:41.222Z,76.00
2018-01-05T18:01:08.725Z,76.00
2018-01-05T18:03:36.229Z,74.80
2018-01-05T18:06:03.693Z,75.10
2018-01-05T18:08:31.208Z,75.70
2018-01-05T18:10:58.727Z,75.00
2018-01-05T18:13:26.303Z,74.90
2018-01-05T18:15:54.511Z,73.30
2018-01-05T18:18:21.969Z,73.30
2018-01-05T18:20:49.427Z,73.70
2018-01-05T18:23:16.893Z,73.90
2018-01-05T18:25:44.386Z,73.30
2018-01-05T18:28:11.836Z,74.10
2018-01-05T18:30:39.292Z,73.70
2018-01-05T18:33:06.794Z,74.60
2018-01-05T18:35:34.344Z,74.70
2018-01-05T18:38:02.626Z,75.20
2018-01-05T18:40:30.075Z,75.20
2018-01-05T18:42:57.609Z,76.20
2018-01-05T18:45:25.073Z,76.60
2018-01-05T18:47:53.345Z,78.00
2018-01-05T18:50:20.841Z,77.30
2018-01-05T18:52:48.348Z,76.80
2018-01-05T18:55:15.842Z,76.80
2018-01-05T18:57:44.068Z,76.70
2018-01-05T19:00:11.588Z,76.70
2018-01-05T19:02:39.107Z,76.70
2018-01-05T19:05:06.600Z,76.80
2018-01-05T19:07:34.827Z,76.60
2018-01-05T19:10:02.327Z,76.60
2018-01-05T19:12:30.595Z,77.40
2018-01-05T19:14:58.852Z,76.80
2018-01-05T19:17:26.407Z,76.70
2018-01-05T19:19:53.860Z,76.10
2018-01-05T19:22:21.371Z,76.00
2018-01-05T19:24:48.862Z,76.20
2018-01-05T19:27:16.369Z,76.90
2018-01-05T19:29:44.627Z,77.60
2018-01-05T19:32:12.119Z,77.60
2018-01-05T19:34:39.626Z,76.80
2018-01-05T19:37:07.122Z,77.30
2018-01-05T19:39:35.392Z,76.40
2018-01-05T19:42:03.652Z,77.10
2018-01-05T19:44:31.160Z,77.10
2018-01-05T19:46:58.650Z,77.40
2018-01-05T19:49:26.159Z,77.10
2018-01-05T19:51:53.659Z,76.70
2018-01-05T19:54:21.196Z,77.10
2018-01-05T19:56:48.686Z,77.00
2018-01-05T19:59:16.184Z,77.60
2018-01-05T20:01:44.451Z,79.00
2018-01-05T20:04:12.719Z,79.30
2018-01-05T20:06:40.331Z,79.30
2018-01-05T20:09:07.833Z,79.60
2018-01-05T20:11:35.326Z,79.50
2018-01-05T20:14:02.832Z,79.10
2018-01-05T20:16:30.336Z,79.10
2018-01-05T20:18:57.848Z,78.20
2018-01-05T20:21:25.346Z,78.20
2018-01-05T20:23:53.619Z,78.10
2018-01-05T20:26:21.875Z,78.50
2018-01-05T20:28:49.385Z,78.50
2018-01-05T20:31:16.884Z,77.70
2018-01-05T20:33:44.395Z,77.50
2018-01-05T20:36:11.995Z,77.50
2018-01-05T20:38:39.523Z,78.30
2018-01-05T20:41:07.018Z,77.90
2018-01-05T20:43:34.530Z,78.10
2018-01-05T20:46:02.036Z,79.70
2018-01-05T20:48:29.530Z,80.50
2018-01-05T20:50:57.795Z,81.30
2018-01-05T20:53:26.066Z,80.60
2018-01-05T20:55:53.577Z,80.50
2018-01-05T20:58:21.058Z,81.40
2018-01-05T21:00:48.571Z,82.00
2018-01-05T21:03:16.078Z,80.90
2018-01-05T21:05:43.596Z,81.30
2018-01-05T21:08:11.090Z,80.90
2018-01-05T21:10:38.598Z,80.80
2018-01-05T21:13:06.107Z,80.40
2018-01-05T21:15:33.564Z,80.80
2018-01-05T21:18:01.077Z,79.80
2018-01-05T21:20:28.583Z,79.80
2018-01-05T21:22:56.084Z,79.60
2018-01-05T21:25:24.356Z,80.80
2018-01-05T21:27:52.614Z,81.40
2018-01-05T21:30:20.069Z,81.40
2018-01-05T21:32:47.680Z,82.00
2018-01-05T21:35:15.186Z,81.20
2018-01-05T21:37:42.666Z,81.90
2018-01-05T21:40:10.932Z,80.00
2018-01-05T21:42:39.187Z,81.50
2018-01-05T21:45:06.685Z,81.30
2018-01-05T21:47:34.952Z,81.20
2018-01-05T21:50:03.227Z,80.30
2018-01-05T21:52:31.487Z,80.70
2018-01-05T21:54:59.008Z,80.60
2018-01-05T21:57:26.530Z,80.40
2018-01-05T21:59:54.792Z,80.40
2018-01-05T22:02:23.057Z,81.30
2018-01-05T22:04:50.557Z,81.20
2018-01-05T22:07:18.068Z,81.80
2018-01-05T22:09:45.558Z,81.90
2018-01-05T22:12:13.832Z,81.20
2018-01-05T22:14:42.095Z,81.10
2018-01-05T22:17:10.353Z,81.40
2018-01-05T22:19:37.852Z,81.30
2018-01-05T22:22:05.540Z,81.70
2018-01-05T22:24:33.120Z,79.50
2018-01-05T22:27:00.648Z,79.60
2018-01-05T22:29:28.143Z,80.10
2018-01-05T22:31:55.646Z,80.80
2018-01-05T22:34:23.139Z,79.70
2018-01-05T22:36:50.656Z,80.20
2018-01-05T22:39:18.916Z,79.50
2018-01-05T22:41:46.428Z,79.50
2018-01-05T22:44:13.936Z,80.50
2018-01-05T22:46:42.205Z,79.70
2018-01-05T22:49:09.703Z,79.70
2018-01-05T22:51:37.208Z,80.30
2018-01-05T22:54:04.701Z,80.70
2018-01-05T22:56:32.968Z,80.00
2018-01-05T22:59:01.239Z,81.00
2018-01-05T23:01:29.516Z,80.70
2018-01-05T23:03:57.724Z,81.00
2018-01-05T23:06:25.236Z,81.00
2018-01-05T23:08:52.718Z,80.20
2018-01-05T23:11:20.997Z,81.60
2018-01-05T23:13:49.269Z,81.30
2018-01-05T23:16:17.517Z,81.70
2018-01-05T23:18:45.030Z,81.50
2018-01-05T23:21:12.525Z,81.00
2018-01-05T23:23:40.035Z,81.10
2018-01-05T23:26:07.515Z,79.90
2018-01-05T23:28:35.005Z,79.90
2018-01-05T23:31:02.514Z,80.10
2018-01-05T23:33:30.017Z,79.80
2018-01-05T23:35:57.510Z,80.50
2018-01-05T23:38:25.735Z,80.20
2018-01-05T23:40:53.231Z,80.20
2018-01-05T23:43:20.733Z,80.10
2018-01-05T23:45:48.230Z,80.60
2018-01-05T23:48:15.734Z,80.10
2018-01-05T23:50:43.234Z,80.30
2018-01-05T23:53:10.704Z,81.10
2018-01-05T23:55:38.189Z,80.70
2018-01-05T23:58:06.458Z,81.80
